Time;durP1;ratioP1;P1;durP2;ratioP2;P2;SDS_P1;SDS_P2;PMS_P1;PMS_P2;Temp;Humidity;BMP_temperature;BMP_pressure;BME280_temperature;BME280_humidity;BME280_pressure;Samples;Min_cycle;Max_cycle;Signal;HPM_P1;HPM_P2
2022/12/05 00:04:59;;;;;;;7.10;4.28;;;;;;;20.60;54.98;100943.81;20655792;28;20046;-81
2022/12/05 00:15:00;;;;;;;5.68;4.40;;;;;;;20.57;55.01;100954.53;20649675;28;20041;-81
2022/12/05 00:25:00;;;;;;;4.30;3.75;;;;;;;20.54;55.15;100951.25;20660074;28;20046;-79
2022/12/05 00:35:01;;;;;;;5.13;4.30;;;;;;;20.54;54.98;100943.34;20621401;28;20046;-80
2022/12/05 00:45:02;;;;;;;5.82;3.97;;;;;;;20.55;54.98;100940.63;20652480;28;20164;-81
2022/12/05 00:55:02;;;;;;;5.45;4.28;;;;;;;20.52;55.10;100937.34;20654682;28;20489;-81
2022/12/05 01:05:03;;;;;;;6.03;4.20;;;;;;;20.55;55.02;100934.53;20647127;28;20046;-79
2022/12/05 01:15:04;;;;;;;5.43;4.38;;;;;;;20.51;54.92;100933.88;20655522;28;20552;-81
2022/12/05 01:25:05;;;;;;;5.07;4.10;;;;;;;20.51;55.01;100926.00;20667420;28;20054;-80
2022/12/05 01:35:05;;;;;;;5.72;4.40;;;;;;;20.47;54.73;100914.81;20649595;28;20058;-80
2022/12/05 01:45:14;;;;;;;5.75;4.05;;;;;;;20.48;55.06;100918.28;20650058;28;20054;-81
2022/12/05 01:55:16;;;;;;;4.30;3.72;;;;;;;20.44;54.84;100909.75;20638029;28;20046;-80
2022/12/05 02:05:26;;;;;;;4.30;3.30;;;;;;;20.42;54.79;100918.69;20640756;28;20072;-81
2022/12/05 02:15:48;;;;;;;3.95;3.53;;;;;;;20.42;54.93;100913.44;20639527;28;20092;-79
2022/12/05 02:26:01;;;;;;;4.45;3.47;;;;;;;20.39;54.88;100916.28;20654752;28;20053;-80
2022/12/05 02:36:21;;;;;;;4.53;3.47;;;;;;;20.39;54.80;100932.06;20645257;28;20112;-80
2022/12/05 02:46:27;;;;;;;4.25;3.50;;;;;;;20.36;55.04;100925.22;20662153;28;20043;-80
2022/12/05 02:56:31;;;;;;;3.67;3.20;;;;;;;20.37;54.81;100926.88;20673147;28;20038;-81
2022/12/05 03:06:56;;;;;;;5.13;3.13;;;;;;;20.36;54.80;100937.50;20646049;28;20495;-81
2022/12/05 03:17:01;;;;;;;3.67;2.97;;;;;;;20.35;54.95;100941.06;20659157;28;20038;-81
2022/12/05 03:27:05;;;;;;;3.38;3.00;;;;;;;20.34;54.59;100944.66;20667152;28;20050;-80
2022/12/05 03:37:12;;;;;;;3.42;2.95;;;;;;;20.33;54.85;100940.34;20664736;28;20057;-80
2022/12/05 03:47:25;;;;;;;3.70;3.20;;;;;;;20.31;54.83;100943.91;20657751;28;20042;-81
2022/12/05 03:57:32;;;;;;;3.53;3.08;;;;;;;20.30;55.06;100941.41;20646509;28;20571;-80
2022/12/05 04:07:36;;;;;;;4.05;2.88;;;;;;;20.30;55.02;100928.25;20655125;28;20858;-81
2022/12/05 04:17:46;;;;;;;4.15;3.00;;;;;;;20.29;54.58;100931.81;20650709;28;20034;-79
2022/12/05 04:27:58;;;;;;;3.47;2.65;;;;;;;20.29;54.90;100935.28;20637013;28;20034;-81
2022/12/05 04:38:06;;;;;;;2.95;2.40;;;;;;;20.27;54.71;100941.59;20659535;28;20062;-80
2022/12/05 04:48:13;;;;;;;2.60;2.40;;;;;;;20.28;54.82;100938.84;20654153;28;20379;-80
2022/12/05 04:58:20;;;;;;;2.58;2.25;;;;;;;20.28;54.74;100927.50;20651866;28;20056;-82
2022/12/05 05:08:24;;;;;;;3.00;2.70;;;;;;;20.28;55.04;100916.97;20647007;28;20047;-81
2022/12/05 05:18:24;;;;;;;3.22;2.53;;;;;;;20.35;54.19;100914.78;20644092;28;20038;-79
2022/12/05 05:28:25;;;;;;;4.45;2.30;;;;;;;20.48;55.01;100923.53;20637854;28;20133;-81
2022/12/05 05:38:25;;;;;;;2.85;2.38;;;;;;;20.60;55.96;100941.19;20616584;28;20034;-81
2022/12/05 05:48:26;;;;;;;7.20;2.40;;;;;;;20.68;55.59;100945.91;20637732;28;20072;-85
2022/12/05 05:58:26;;;;;;;3.60;2.10;;;;;;;20.77;55.19;100944.50;20632720;28;20077;-82
2022/12/05 06:08:29;;;;;;;2.95;2.28;;;;;;;20.81;55.04;100945.13;20637984;28;20046;-79
2022/12/05 06:18:29;;;;;;;;;;;;;;;20.88;55.40;100957.75;20628502;28;20042;-83
2022/12/05 06:28:30;;;;;;;4.78;2.25;;;;;;;20.99;56.78;100975.47;20587775;28;19964;-85
2022/12/05 06:38:31;;;;;;;8.40;3.30;;;;;;;20.94;54.39;100973.16;20552466;28;20042;-81
2022/12/05 06:48:32;;;;;;;7.75;2.70;;;;;;;21.06;55.27;100965.38;20619384;28;20030;-79
2022/12/05 06:58:32;;;;;;;9.02;3.10;;;;;;;21.13;54.60;100971.06;20632390;28;20069;-85
2022/12/05 07:08:33;;;;;;;5.75;3.03;;;;;;;21.15;53.92;100985.81;20619159;28;20680;-83
2022/12/05 07:18:35;;;;;;;3.75;2.60;;;;;;;21.20;54.50;101001.31;20603945;28;20035;-83
2022/12/05 07:28:36;;;;;;;4.63;3.00;;;;;;;21.23;54.07;100999.31;20619628;28;20037;-83
2022/12/05 07:38:39;;;;;;;2.72;2.45;;;;;;;21.27;53.68;101002.56;20652822;28;20972;-84
2022/12/05 07:48:39;;;;;;;5.00;2.80;;;;;;;21.33;54.17;101014.50;20656076;28;20034;-80
2022/12/05 07:58:46;;;;;;;5.60;2.50;;;;;;;21.38;53.98;101031.66;20658848;28;20061;-84
2022/12/05 08:08:48;;;;;;;4.03;2.45;;;;;;;21.38;53.34;101022.94;20671120;28;20516;-83
2022/12/05 08:18:54;;;;;;;8.47;3.03;;;;;;;21.37;52.00;101026.50;20657582;28;20073;-80
2022/12/05 08:29:00;;;;;;;3.95;2.30;;;;;;;21.45;52.35;101034.72;20629686;28;20050;-88
2022/12/05 08:39:04;;;;;;;2.45;2.25;;;;;;;21.46;52.25;101043.47;20644648;28;20413;-83
2022/12/05 08:49:05;;;;;;;3.65;2.22;;;;;;;21.51;52.46;101036.13;20660487;28;20038;-83
2022/12/05 08:59:06;;;;;;;8.05;3.83;;;;;;;20.80;46.67;101031.16;20642710;28;20060;-87
2022/12/05 09:09:10;;;;;;;7.00;3.20;;;;;;;21.19;46.81;101033.84;20660971;28;20034;-88
2022/12/05 09:19:16;;;;;;;8.00;2.92;;;;;;;21.23;48.83;101030.91;20690762;28;20038;-88
2022/12/05 09:29:17;;;;;;;6.32;2.90;;;;;;;21.25;49.57;101026.41;20669616;28;20034;-88
2022/12/05 09:39:17;;;;;;;3.70;2.90;;;;;;;21.27;49.88;101013.94;20673812;28;20057;-91
2022/12/05 09:49:18;;;;;;;2.92;2.55;;;;;;;21.28;50.25;101013.00;20677590;28;20046;-88
2022/12/05 09:59:20;;;;;;;6.13;2.50;;;;;;;21.30;50.37;100998.88;20658270;28;20066;-88
2022/12/05 10:10:05;;;;;;;41.95;8.18;;;;;;;20.70;42.49;101001.06;20667618;28;20048;-87
2022/12/05 10:20:32;;;;;;;19.98;6.03;;;;;;;20.91;44.78;100990.94;20644673;28;20049;-85
2022/12/05 10:30:35;;;;;;;15.35;5.00;;;;;;;20.99;46.72;100964.94;20684464;28;20045;-86
2022/12/05 10:40:37;;;;;;;;;;;;;;;21.01;47.42;100964.88;20677825;28;20042;-90
2022/12/05 10:50:38;;;;;;;12.25;4.03;;;;;;;21.09;48.07;100949.38;20683650;28;19944;-89
2022/12/05 11:00:45;;;;;;;18.60;4.40;;;;;;;21.10;48.29;100930.00;20674509;28;20046;-86
2022/12/05 11:10:45;;;;;;;8.20;3.90;;;;;;;21.14;48.44;100946.41;20709808;28;20038;-86
2022/12/05 11:20:46;;;;;;;9.45;4.13;;;;;;;21.14;48.59;100918.31;20700399;28;20046;-87
2022/12/05 11:30:57;;;;;;;5.55;3.63;;;;;;;21.15;48.96;100927.03;20669188;28;20512;-89
2022/12/05 11:41:36;;;;;;;4.70;3.22;;;;;;;21.16;48.72;100919.03;20679285;28;20054;-92
2022/12/05 11:51:46;;;;;;;7.82;3.20;;;;;;;21.16;48.22;100903.22;20647251;28;20049;-84
2022/12/05 12:01:56;;;;;;;5.97;3.38;;;;;;;21.22;48.85;100894.06;20670985;28;20791;-83
2022/12/05 12:12:32;;;;;;;4.93;3.30;;;;;;;21.26;49.14;100883.22;20660785;28;20141;-87
2022/12/05 12:22:43;;;;;;;5.93;3.30;;;;;;;21.28;49.15;100875.22;20686823;28;20050;-86
2022/12/05 12:32:53;;;;;;;5.93;3.35;;;;;;;21.32;49.28;100875.84;20668162;28;20066;-83
2022/12/05 12:43:36;;;;;;;3.88;3.38;;;;;;;21.33;49.30;100853.81;20711582;28;20176;-88
2022/12/05 12:54:10;;;;;;;5.20;3.05;;;;;;;21.36;49.43;100862.34;20686526;28;20069;-83
2022/12/05 13:04:16;;;;;;;5.22;3.10;;;;;;;21.37;49.40;100856.13;20671272;28;20096;-85
2022/12/05 13:14:23;;;;;;;4.10;3.03;;;;;;;21.37;49.50;100845.59;20639472;28;20071;-85
2022/12/05 13:24:26;;;;;;;4.57;2.70;;;;;;;21.37;49.40;100855.28;20661977;28;20145;-85
2022/12/05 13:34:47;;;;;;;6.45;2.97;;;;;;;21.39;49.65;100837.56;20679635;28;20053;-87
2022/12/05 13:44:52;;;;;;;6.68;3.10;;;;;;;21.39;49.65;100838.41;20654653;28;20114;-83
2022/12/05 13:55:23;;;;;;;4.35;3.05;;;;;;;21.42;49.64;100854.00;20680624;28;20042;-83
2022/12/05 14:05:26;;;;;;;7.57;2.95;;;;;;;21.44;49.50;100851.25;20676817;28;20069;-82
2022/12/05 14:15:33;;;;;;;3.95;3.00;;;;;;;21.42;49.79;100863.69;20669493;28;20038;-84
2022/12/05 14:25:39;;;;;;;6.20;3.10;;;;;;;21.44;49.83;100852.09;20662081;28;20053;-85
2022/12/05 14:35:45;;;;;;;7.10;3.13;;;;;;;21.35;49.48;100839.59;20668343;28;20050;-85
2022/12/05 14:46:01;;;;;;;4.63;3.60;;;;;;;21.44;49.55;100846.81;20641887;28;20104;-84
2022/12/05 14:56:22;;;;;;;6.55;3.90;;;;;;;21.49;49.21;100835.94;20652182;28;20446;-84
2022/12/05 15:06:24;;;;;;;9.82;4.35;;;;;;;21.46;49.45;100832.69;20642039;28;20052;-87
2022/12/05 15:16:28;;;;;;;6.43;4.30;;;;;;;21.44;49.81;100833.63;20666799;28;20131;-83
2022/12/05 15:26:53;;;;;;;7.50;4.28;;;;;;;21.48;50.36;100823.72;20622761;28;20076;-84
2022/12/05 15:36:58;;;;;;;9.43;5.68;;;;;;;21.49;49.63;100824.59;20661688;28;20417;-91
2022/12/05 15:46:59;;;;;;;7.70;5.43;;;;;;;21.47;49.64;100798.34;20663475;28;20045;-87
2022/12/05 15:57:17;;;;;;;8.93;6.72;;;;;;;21.45;49.71;100794.97;20677245;28;20061;-84
2022/12/05 16:07:19;;;;;;;6.70;4.40;;;;;;;21.44;49.91;100795.94;20671438;28;20061;-81
2022/12/05 16:17:20;;;;;;;11.37;4.00;;;;;;;21.42;50.88;100806.59;20650563;28;20050;-84
2022/12/05 16:27:24;;;;;;;6.13;4.10;;;;;;;21.46;51.58;100803.72;20623466;28;20038;-83
2022/12/05 16:37:28;;;;;;;9.38;4.78;;;;;;;21.50;50.48;100798.13;20602893;28;20070;-83
2022/12/05 16:47:41;;;;;;;12.10;4.88;;;;;;;21.47;51.43;100800.13;20648946;28;20050;-82
2022/12/05 16:57:41;;;;;;;9.95;4.20;;;;;;;21.48;51.46;100820.25;20667804;28;20053;-82
2022/12/05 17:07:43;;;;;;;7.15;4.15;;;;;;;21.44;52.03;100814.38;20663253;28;20125;-83
2022/12/05 17:17:44;;;;;;;7.57;4.60;;;;;;;21.48;51.92;100805.28;20654783;28;20109;-82
2022/12/05 17:27:45;;;;;;;6.85;3.92;;;;;;;21.47;52.02;100782.53;20656926;28;20038;-86
2022/12/05 17:37:51;;;;;;;6.78;4.45;;;;;;;21.46;52.06;100754.50;20670777;28;20096;-80
2022/12/05 17:47:52;;;;;;;6.72;4.50;;;;;;;21.44;52.35;100746.69;20646773;28;20157;-79
2022/12/05 17:57:53;;;;;;;10.40;4.82;;;;;;;21.32;53.37;100763.41;20643167;28;20052;-82
2022/12/05 18:07:55;;;;;;;11.05;4.65;;;;;;;21.44;53.13;100778.31;20673539;28;20131;-76
2022/12/05 18:17:57;;;;;;;9.23;5.00;;;;;;;21.51;52.94;100755.00;20690629;28;20397;-77
2022/12/05 18:27:58;;;;;;;12.38;5.07;;;;;;;21.53;52.79;100755.75;20658192;28;20758;-79
2022/12/05 18:37:59;;;;;;;8.27;5.22;;;;;;;21.54;53.02;100741.59;20654325;28;20144;-89
2022/12/05 18:48:00;;;;;;;12.20;5.60;;;;;;;21.55;52.66;100737.19;20723129;28;20048;-82
2022/12/05 18:58:02;;;;;;;15.88;5.88;;;;;;;21.56;52.40;100736.22;20672934;28;20690;-77
2022/12/05 19:08:02;;;;;;;13.43;6.37;;;;;;;21.52;52.03;100732.97;20705076;28;20125;-77
2022/12/05 19:18:03;;;;;;;10.63;6.80;;;;;;;20.89;49.57;100743.59;20593097;28;20045;-82
2022/12/05 19:28:03;;;;;;;8.05;6.07;;;;;;;21.00;49.03;100731.50;20676577;28;20097;-84
2022/12/05 19:38:04;;;;;;;10.13;6.30;;;;;;;21.00;50.39;100713.88;20671787;28;20054;-84
2022/12/05 19:48:04;;;;;;;9.35;6.22;;;;;;;21.02;50.63;100705.88;20664932;28;20074;-79
2022/12/05 19:58:05;;;;;;;9.65;6.32;;;;;;;21.08;51.21;100701.03;20686576;28;20052;-77
2022/12/05 20:08:06;;;;;;;11.43;5.82;;;;;;;21.10;51.66;100696.50;20668775;28;20045;-76
2022/12/05 20:18:06;;;;;;;12.55;6.55;;;;;;;21.08;51.69;100702.78;20665822;28;20046;-76
2022/12/05 20:28:07;;;;;;;9.35;6.32;;;;;;;21.09;51.94;100707.13;20661565;28;20092;-77
2022/12/05 20:38:08;;;;;;;10.00;5.93;;;;;;;21.06;52.27;100705.56;20666786;28;20543;-76
2022/12/05 20:48:08;;;;;;;9.73;5.65;;;;;;;21.04;52.50;100694.28;20658276;28;20038;-76
2022/12/05 20:58:08;;;;;;;7.90;5.57;;;;;;;21.01;52.45;100683.16;20653619;28;20034;-77
2022/12/05 21:08:09;;;;;;;7.30;5.35;;;;;;;21.01;52.39;100659.47;20644005;28;20049;-77
2022/12/05 21:18:10;;;;;;;7.72;5.50;;;;;;;20.99;52.87;100662.19;20654590;28;20042;-77
2022/12/05 21:28:10;;;;;;;7.55;5.28;;;;;;;20.97;52.73;100650.09;20655782;28;20045;-76
2022/12/05 21:38:11;;;;;;;7.57;5.35;;;;;;;20.95;53.00;100655.47;20656684;28;20042;-76
2022/12/05 21:48:11;;;;;;;8.77;5.40;;;;;;;20.93;52.84;100649.47;20645709;28;20121;-76
2022/12/05 21:58:12;;;;;;;7.75;5.40;;;;;;;20.90;53.26;100647.91;20638144;28;20086;-77
2022/12/05 22:08:12;;;;;;;7.88;5.53;;;;;;;20.88;53.04;100638.44;20652721;28;20050;-77
2022/12/05 22:18:13;;;;;;;7.25;5.03;;;;;;;20.86;53.11;100622.75;20650180;28;20045;-76
2022/12/05 22:28:13;;;;;;;6.82;5.13;;;;;;;20.85;53.15;100630.75;20637228;28;20058;-77
2022/12/05 22:38:13;;;;;;;6.97;4.90;;;;;;;20.84;53.15;100624.66;20640806;28;20047;-78
2022/12/05 22:48:14;;;;;;;6.05;4.68;;;;;;;20.81;53.43;100600.34;20632898;28;20109;-76
2022/12/05 22:58:15;;;;;;;8.27;4.93;;;;;;;20.82;53.30;100604.66;20643081;28;20038;-77
2022/12/05 23:08:15;;;;;;;6.35;4.90;;;;;;;20.73;53.39;100574.59;20639714;28;20087;-78
2022/12/05 23:18:15;;;;;;;5.40;4.35;;;;;;;20.75;53.41;100573.53;20655730;28;20041;-77
2022/12/05 23:28:16;;;;;;;6.40;4.38;;;;;;;20.75;53.32;100575.31;20648856;28;20109;-77
2022/12/05 23:38:16;;;;;;;4.95;4.18;;;;;;;20.71;53.54;100556.22;20658524;28;20070;-76
2022/12/05 23:48:17;;;;;;;5.93;4.70;;;;;;;20.67;53.74;100541.63;20643788;28;20049;-77
2022/12/05 23:58:17;;;;;;;4.97;4.20;;;;;;;20.67;53.71;100533.75;20650791;28;20060;-77
